sensor_id;sensor_type;location;lat;lon;timestamp;temperature;humidity
26655;DHT22;14278;50.784;4.630;2023-05-10T00:00:14;14.60;99.90
26655;DHT22;14278;50.784;4.630;2023-05-10T00:02:40;15.00;99.90
26655;DHT22;14278;50.784;4.630;2023-05-10T00:05:10;15.00;99.90
26655;DHT22;14278;50.784;4.630;2023-05-10T00:07:36;15.00;99.90
26655;DHT22;14278;50.784;4.630;2023-05-10T00:10:02;14.90;99.90
26655;DHT22;14278;50.784;4.630;2023-05-10T00:12:28;14.90;99.90
26655;DHT22;14278;50.784;4.630;2023-05-10T00:14:54;14.80;99.90
26655;DHT22;14278;50.784;4.630;2023-05-10T00:17:24;14.90;99.90
26655;DHT22;14278;50.784;4.630;2023-05-10T00:19:51;14.80;99.90
26655;DHT22;14278;50.784;4.630;2023-05-10T00:22:20;14.80;99.90
26655;DHT22;14278;50.784;4.630;2023-05-10T00:24:48;14.90;99.90
26655;DHT22;14278;50.784;4.630;2023-05-10T00:27:18;14.70;99.90
26655;DHT22;14278;50.784;4.630;2023-05-10T00:29:48;14.80;99.90
26655;DHT22;14278;50.784;4.630;2023-05-10T00:32:18;15.00;99.90
26655;DHT22;14278;50.784;4.630;2023-05-10T00:34:45;15.00;99.90
26655;DHT22;14278;50.784;4.630;2023-05-10T00:37:15;15.00;99.90
26655;DHT22;14278;50.784;4.630;2023-05-10T00:39:41;14.90;99.90
26655;DHT22;14278;50.784;4.630;2023-05-10T00:42:11;14.90;99.90
26655;DHT22;14278;50.784;4.630;2023-05-10T00:44:36;15.00;99.90
26655;DHT22;14278;50.784;4.630;2023-05-10T00:47:03;14.90;99.90
26655;DHT22;14278;50.784;4.630;2023-05-10T00:49:29;14.90;99.90
26655;DHT22;14278;50.784;4.630;2023-05-10T00:51:58;15.10;99.90
26655;DHT22;14278;50.784;4.630;2023-05-10T00:54:28;15.30;99.90
26655;DHT22;14278;50.784;4.630;2023-05-10T00:56:56;15.20;99.90
26655;DHT22;14278;50.784;4.630;2023-05-10T00:59:27;15.00;99.90
26655;DHT22;14278;50.784;4.630;2023-05-10T01:01:56;15.00;99.90
26655;DHT22;14278;50.784;4.630;2023-05-10T01:04:22;15.00;99.90
26655;DHT22;14278;50.784;4.630;2023-05-10T01:06:51;14.80;99.90
26655;DHT22;14278;50.784;4.630;2023-05-10T01:09:19;14.80;99.90
26655;DHT22;14278;50.784;4.630;2023-05-10T01:11:48;15.00;99.90
26655;DHT22;14278;50.784;4.630;2023-05-10T01:14:18;15.00;99.90
26655;DHT22;14278;50.784;4.630;2023-05-10T01:16:47;14.90;99.90
26655;DHT22;14278;50.784;4.630;2023-05-10T01:19:23;14.70;99.90
26655;DHT22;14278;50.784;4.630;2023-05-10T01:22:22;14.80;99.90
26655;DHT22;14278;50.784;4.630;2023-05-10T01:31:03;14.70;99.90
26655;DHT22;14278;50.784;4.630;2023-05-10T01:33:46;14.90;99.90
26655;DHT22;14278;50.784;4.630;2023-05-10T01:36:35;14.80;99.90
26655;DHT22;14278;50.784;4.630;2023-05-10T01:39:25;14.80;99.90
26655;DHT22;14278;50.784;4.630;2023-05-10T01:41:56;15.00;99.90
26655;DHT22;14278;50.784;4.630;2023-05-10T01:47:14;14.80;99.90
26655;DHT22;14278;50.784;4.630;2023-05-10T01:49:52;14.70;99.90
26655;DHT22;14278;50.784;4.630;2023-05-10T01:52:25;15.10;99.90
26655;DHT22;14278;50.784;4.630;2023-05-10T01:55:04;15.20;99.90
26655;DHT22;14278;50.784;4.630;2023-05-10T01:57:35;15.20;99.90
26655;DHT22;14278;50.784;4.630;2023-05-10T02:00:03;15.10;99.90
26655;DHT22;14278;50.784;4.630;2023-05-10T02:02:36;15.10;99.90
26655;DHT22;14278;50.784;4.630;2023-05-10T02:05:05;14.90;99.90
26655;DHT22;14278;50.784;4.630;2023-05-10T02:07:35;14.80;99.90
26655;DHT22;14278;50.784;4.630;2023-05-10T02:10:05;15.00;99.90
26655;DHT22;14278;50.784;4.630;2023-05-10T02:12:35;15.00;99.90
26655;DHT22;14278;50.784;4.630;2023-05-10T02:15:04;15.10;99.90
26655;DHT22;14278;50.784;4.630;2023-05-10T02:17:35;15.00;99.90
26655;DHT22;14278;50.784;4.630;2023-05-10T02:20:05;15.20;99.90
26655;DHT22;14278;50.784;4.630;2023-05-10T02:22:33;15.10;99.90
26655;DHT22;14278;50.784;4.630;2023-05-10T02:25:01;15.00;99.90
26655;DHT22;14278;50.784;4.630;2023-05-10T02:27:29;14.90;99.90
26655;DHT22;14278;50.784;4.630;2023-05-10T02:29:56;14.80;99.90
26655;DHT22;14278;50.784;4.630;2023-05-10T02:32:24;15.10;99.90
26655;DHT22;14278;50.784;4.630;2023-05-10T02:34:51;15.00;99.90
26655;DHT22;14278;50.784;4.630;2023-05-10T02:37:19;15.10;99.90
26655;DHT22;14278;50.784;4.630;2023-05-10T02:39:53;15.10;99.90
26655;DHT22;14278;50.784;4.630;2023-05-10T02:42:27;15.10;99.90
26655;DHT22;14278;50.784;4.630;2023-05-10T02:45:00;14.80;99.90
26655;DHT22;14278;50.784;4.630;2023-05-10T02:47:27;14.70;99.90
26655;DHT22;14278;50.784;4.630;2023-05-10T02:49:53;15.00;99.90
26655;DHT22;14278;50.784;4.630;2023-05-10T02:52:25;15.00;99.90
26655;DHT22;14278;50.784;4.630;2023-05-10T02:54:54;15.10;99.90
26655;DHT22;14278;50.784;4.630;2023-05-10T02:57:25;14.90;99.90
26655;DHT22;14278;50.784;4.630;2023-05-10T02:59:51;15.00;99.90
26655;DHT22;14278;50.784;4.630;2023-05-10T03:02:17;15.30;99.90
26655;DHT22;14278;50.784;4.630;2023-05-10T03:04:43;15.30;99.90
26655;DHT22;14278;50.784;4.630;2023-05-10T03:07:09;15.50;99.90
26655;DHT22;14278;50.784;4.630;2023-05-10T03:09:36;15.30;99.90
26655;DHT22;14278;50.784;4.630;2023-05-10T03:12:27;15.10;99.90
26655;DHT22;14278;50.784;4.630;2023-05-10T03:17:45;15.00;99.90
26655;DHT22;14278;50.784;4.630;2023-05-10T03:22:55;15.10;99.90
26655;DHT22;14278;50.784;4.630;2023-05-10T03:25:24;15.00;99.90
26655;DHT22;14278;50.784;4.630;2023-05-10T03:27:50;14.80;99.90
26655;DHT22;14278;50.784;4.630;2023-05-10T03:30:18;14.80;99.90
26655;DHT22;14278;50.784;4.630;2023-05-10T03:32:45;14.50;99.90
26655;DHT22;14278;50.784;4.630;2023-05-10T03:35:12;14.60;99.90
26655;DHT22;14278;50.784;4.630;2023-05-10T03:37:38;14.50;99.90
26655;DHT22;14278;50.784;4.630;2023-05-10T03:40:05;14.40;99.90
26655;DHT22;14278;50.784;4.630;2023-05-10T03:42:31;14.60;99.90
26655;DHT22;14278;50.784;4.630;2023-05-10T03:44:58;14.90;99.90
26655;DHT22;14278;50.784;4.630;2023-05-10T03:47:24;14.40;99.90
26655;DHT22;14278;50.784;4.630;2023-05-10T03:49:50;14.60;99.90
26655;DHT22;14278;50.784;4.630;2023-05-10T03:52:16;14.60;99.90
26655;DHT22;14278;50.784;4.630;2023-05-10T03:54:42;14.50;99.90
26655;DHT22;14278;50.784;4.630;2023-05-10T03:57:08;14.20;99.90
26655;DHT22;14278;50.784;4.630;2023-05-10T03:59:35;14.20;99.90
26655;DHT22;14278;50.784;4.630;2023-05-10T04:02:00;14.40;99.90
26655;DHT22;14278;50.784;4.630;2023-05-10T04:04:26;14.60;99.90
26655;DHT22;14278;50.784;4.630;2023-05-10T04:06:52;14.40;99.90
26655;DHT22;14278;50.784;4.630;2023-05-10T04:09:18;14.20;99.90
26655;DHT22;14278;50.784;4.630;2023-05-10T04:11:44;14.30;99.90
26655;DHT22;14278;50.784;4.630;2023-05-10T04:14:10;14.40;99.90
26655;DHT22;14278;50.784;4.630;2023-05-10T04:16:35;14.50;99.90
26655;DHT22;14278;50.784;4.630;2023-05-10T04:19:02;14.30;99.90
26655;DHT22;14278;50.784;4.630;2023-05-10T04:21:28;14.50;99.90
26655;DHT22;14278;50.784;4.630;2023-05-10T04:23:54;14.60;99.90
26655;DHT22;14278;50.784;4.630;2023-05-10T04:26:20;14.60;99.90
26655;DHT22;14278;50.784;4.630;2023-05-10T04:28:46;14.60;99.90
26655;DHT22;14278;50.784;4.630;2023-05-10T04:31:12;14.50;99.90
26655;DHT22;14278;50.784;4.630;2023-05-10T04:33:38;14.40;99.90
26655;DHT22;14278;50.784;4.630;2023-05-10T04:36:04;14.50;99.90
26655;DHT22;14278;50.784;4.630;2023-05-10T04:38:30;14.70;99.90
26655;DHT22;14278;50.784;4.630;2023-05-10T04:41:13;14.60;99.90
26655;DHT22;14278;50.784;4.630;2023-05-10T04:43:38;14.60;99.90
26655;DHT22;14278;50.784;4.630;2023-05-10T04:46:05;14.70;99.90
26655;DHT22;14278;50.784;4.630;2023-05-10T04:48:31;14.80;99.90
26655;DHT22;14278;50.784;4.630;2023-05-10T04:50:57;14.60;99.90
26655;DHT22;14278;50.784;4.630;2023-05-10T04:53:22;14.30;99.90
26655;DHT22;14278;50.784;4.630;2023-05-10T04:55:48;14.50;99.90
26655;DHT22;14278;50.784;4.630;2023-05-10T04:58:15;14.70;99.90
26655;DHT22;14278;50.784;4.630;2023-05-10T05:00:40;14.70;99.90
26655;DHT22;14278;50.784;4.630;2023-05-10T05:03:07;14.80;99.90
26655;DHT22;14278;50.784;4.630;2023-05-10T05:05:33;15.00;99.90
26655;DHT22;14278;50.784;4.630;2023-05-10T05:07:58;14.70;99.90
26655;DHT22;14278;50.784;4.630;2023-05-10T05:10:25;14.90;99.90
26655;DHT22;14278;50.784;4.630;2023-05-10T05:12:50;14.70;99.90
26655;DHT22;14278;50.784;4.630;2023-05-10T05:15:16;14.80;99.90
26655;DHT22;14278;50.784;4.630;2023-05-10T05:17:43;14.70;99.90
26655;DHT22;14278;50.784;4.630;2023-05-10T05:20:09;14.50;99.90
26655;DHT22;14278;50.784;4.630;2023-05-10T05:22:39;14.80;99.90
26655;DHT22;14278;50.784;4.630;2023-05-10T05:25:05;14.80;99.90
26655;DHT22;14278;50.784;4.630;2023-05-10T05:27:31;14.80;99.90
26655;DHT22;14278;50.784;4.630;2023-05-10T05:30:00;15.00;99.90
26655;DHT22;14278;50.784;4.630;2023-05-10T05:32:26;15.10;99.90
26655;DHT22;14278;50.784;4.630;2023-05-10T05:34:52;15.30;99.90
26655;DHT22;14278;50.784;4.630;2023-05-10T05:37:19;15.50;99.90
26655;DHT22;14278;50.784;4.630;2023-05-10T05:39:46;15.40;99.90
26655;DHT22;14278;50.784;4.630;2023-05-10T05:42:13;15.30;99.90
26655;DHT22;14278;50.784;4.630;2023-05-10T05:44:40;15.50;99.90
26655;DHT22;14278;50.784;4.630;2023-05-10T05:47:06;15.30;99.90
26655;DHT22;14278;50.784;4.630;2023-05-10T05:49:32;15.50;99.90
26655;DHT22;14278;50.784;4.630;2023-05-10T05:52:02;14.90;99.90
26655;DHT22;14278;50.784;4.630;2023-05-10T05:54:28;14.50;99.90
26655;DHT22;14278;50.784;4.630;2023-05-10T05:56:55;14.30;99.90
26655;DHT22;14278;50.784;4.630;2023-05-10T05:59:21;14.50;99.90
26655;DHT22;14278;50.784;4.630;2023-05-10T06:01:47;14.60;99.90
26655;DHT22;14278;50.784;4.630;2023-05-10T06:04:13;14.60;99.90
26655;DHT22;14278;50.784;4.630;2023-05-10T06:06:39;14.60;99.90
26655;DHT22;14278;50.784;4.630;2023-05-10T06:09:04;14.70;99.90
26655;DHT22;14278;50.784;4.630;2023-05-10T06:11:31;14.60;99.90
26655;DHT22;14278;50.784;4.630;2023-05-10T06:14:00;14.30;99.90
26655;DHT22;14278;50.784;4.630;2023-05-10T06:16:26;14.60;99.90
26655;DHT22;14278;50.784;4.630;2023-05-10T06:18:52;14.20;99.90
26655;DHT22;14278;50.784;4.630;2023-05-10T06:21:18;14.20;99.90
26655;DHT22;14278;50.784;4.630;2023-05-10T06:23:44;14.20;99.90
26655;DHT22;14278;50.784;4.630;2023-05-10T06:26:10;14.00;99.90
26655;DHT22;14278;50.784;4.630;2023-05-10T06:28:36;14.30;99.90
26655;DHT22;14278;50.784;4.630;2023-05-10T06:31:05;14.10;99.90
26655;DHT22;14278;50.784;4.630;2023-05-10T06:33:33;13.70;99.90
26655;DHT22;14278;50.784;4.630;2023-05-10T06:35:59;13.80;99.90
26655;DHT22;14278;50.784;4.630;2023-05-10T06:38:25;14.00;99.90
26655;DHT22;14278;50.784;4.630;2023-05-10T06:40:51;14.20;99.90
26655;DHT22;14278;50.784;4.630;2023-05-10T06:43:17;14.30;99.90
26655;DHT22;14278;50.784;4.630;2023-05-10T06:45:42;14.50;99.90
26655;DHT22;14278;50.784;4.630;2023-05-10T06:48:09;14.50;99.90
26655;DHT22;14278;50.784;4.630;2023-05-10T06:50:35;14.40;99.90
26655;DHT22;14278;50.784;4.630;2023-05-10T06:53:01;14.40;99.90
26655;DHT22;14278;50.784;4.630;2023-05-10T06:55:27;14.40;99.90
26655;DHT22;14278;50.784;4.630;2023-05-10T06:57:53;14.20;99.90
26655;DHT22;14278;50.784;4.630;2023-05-10T07:00:19;14.10;99.90
26655;DHT22;14278;50.784;4.630;2023-05-10T07:02:46;14.10;99.90
26655;DHT22;14278;50.784;4.630;2023-05-10T07:05:12;14.20;99.90
26655;DHT22;14278;50.784;4.630;2023-05-10T07:07:38;14.40;99.90
26655;DHT22;14278;50.784;4.630;2023-05-10T07:10:05;14.20;99.90
26655;DHT22;14278;50.784;4.630;2023-05-10T07:12:31;14.40;99.90
26655;DHT22;14278;50.784;4.630;2023-05-10T07:14:57;14.60;99.90
26655;DHT22;14278;50.784;4.630;2023-05-10T07:17:23;14.80;99.90
26655;DHT22;14278;50.784;4.630;2023-05-10T07:19:49;14.60;99.90
26655;DHT22;14278;50.784;4.630;2023-05-10T07:22:15;14.60;99.90
26655;DHT22;14278;50.784;4.630;2023-05-10T07:24:42;15.00;99.90
26655;DHT22;14278;50.784;4.630;2023-05-10T07:27:08;15.00;99.90
26655;DHT22;14278;50.784;4.630;2023-05-10T07:29:35;15.10;99.90
26655;DHT22;14278;50.784;4.630;2023-05-10T07:32:01;15.20;99.90
26655;DHT22;14278;50.784;4.630;2023-05-10T07:34:26;15.20;99.90
26655;DHT22;14278;50.784;4.630;2023-05-10T07:36:53;15.20;99.90
26655;DHT22;14278;50.784;4.630;2023-05-10T07:39:19;14.90;99.90
26655;DHT22;14278;50.784;4.630;2023-05-10T07:41:46;14.80;99.90
26655;DHT22;14278;50.784;4.630;2023-05-10T07:44:11;15.10;99.90
26655;DHT22;14278;50.784;4.630;2023-05-10T07:46:37;14.80;99.90
26655;DHT22;14278;50.784;4.630;2023-05-10T07:49:04;15.10;99.90
26655;DHT22;14278;50.784;4.630;2023-05-10T07:51:30;14.90;99.90
26655;DHT22;14278;50.784;4.630;2023-05-10T07:53:55;14.70;99.90
26655;DHT22;14278;50.784;4.630;2023-05-10T07:56:27;14.90;99.90
26655;DHT22;14278;50.784;4.630;2023-05-10T07:58:58;15.00;99.90
26655;DHT22;14278;50.784;4.630;2023-05-10T08:01:25;15.10;99.90
26655;DHT22;14278;50.784;4.630;2023-05-10T08:03:51;15.10;99.90
26655;DHT22;14278;50.784;4.630;2023-05-10T08:06:19;15.10;99.90
26655;DHT22;14278;50.784;4.630;2023-05-10T08:08:46;15.10;99.90
26655;DHT22;14278;50.784;4.630;2023-05-10T08:11:17;15.40;99.90
26655;DHT22;14278;50.784;4.630;2023-05-10T08:13:44;15.50;99.90
26655;DHT22;14278;50.784;4.630;2023-05-10T08:16:10;15.60;99.90
26655;DHT22;14278;50.784;4.630;2023-05-10T08:18:37;15.70;99.90
26655;DHT22;14278;50.784;4.630;2023-05-10T08:21:03;15.40;99.90
26655;DHT22;14278;50.784;4.630;2023-05-10T08:23:28;15.60;99.90
26655;DHT22;14278;50.784;4.630;2023-05-10T08:25:54;15.60;99.90
26655;DHT22;14278;50.784;4.630;2023-05-10T08:28:20;15.70;99.90
26655;DHT22;14278;50.784;4.630;2023-05-10T08:30:46;15.80;99.90
26655;DHT22;14278;50.784;4.630;2023-05-10T08:33:11;15.80;99.90
26655;DHT22;14278;50.784;4.630;2023-05-10T08:35:37;15.80;99.90
26655;DHT22;14278;50.784;4.630;2023-05-10T08:38:04;15.80;99.90
26655;DHT22;14278;50.784;4.630;2023-05-10T08:40:29;15.80;99.90
26655;DHT22;14278;50.784;4.630;2023-05-10T08:43:07;15.70;99.90
26655;DHT22;14278;50.784;4.630;2023-05-10T08:45:37;15.50;99.90
26655;DHT22;14278;50.784;4.630;2023-05-10T08:48:06;15.50;99.90
26655;DHT22;14278;50.784;4.630;2023-05-10T08:50:35;15.60;99.90
26655;DHT22;14278;50.784;4.630;2023-05-10T08:53:04;15.50;99.90
26655;DHT22;14278;50.784;4.630;2023-05-10T08:55:31;15.60;99.90
26655;DHT22;14278;50.784;4.630;2023-05-10T08:57:58;15.60;99.90
26655;DHT22;14278;50.784;4.630;2023-05-10T09:00:25;15.70;99.90
26655;DHT22;14278;50.784;4.630;2023-05-10T09:02:51;15.60;99.90
26655;DHT22;14278;50.784;4.630;2023-05-10T09:05:17;15.40;99.90
26655;DHT22;14278;50.784;4.630;2023-05-10T09:07:43;15.40;99.90
26655;DHT22;14278;50.784;4.630;2023-05-10T09:10:11;15.30;99.90
26655;DHT22;14278;50.784;4.630;2023-05-10T09:12:37;15.30;99.90
26655;DHT22;14278;50.784;4.630;2023-05-10T09:15:05;15.20;99.90
26655;DHT22;14278;50.784;4.630;2023-05-10T09:17:32;15.30;99.90
26655;DHT22;14278;50.784;4.630;2023-05-10T09:20:03;15.50;99.90
26655;DHT22;14278;50.784;4.630;2023-05-10T09:22:30;15.40;99.90
26655;DHT22;14278;50.784;4.630;2023-05-10T09:25:11;15.30;99.90
26655;DHT22;14278;50.784;4.630;2023-05-10T09:27:38;15.20;99.90
26655;DHT22;14278;50.784;4.630;2023-05-10T09:30:05;15.20;99.90
26655;DHT22;14278;50.784;4.630;2023-05-10T09:32:46;14.90;99.90
26655;DHT22;14278;50.784;4.630;2023-05-10T09:35:14;15.00;99.90
26655;DHT22;14278;50.784;4.630;2023-05-10T09:37:45;15.30;99.90
26655;DHT22;14278;50.784;4.630;2023-05-10T09:40:14;15.00;99.90
26655;DHT22;14278;50.784;4.630;2023-05-10T09:42:42;15.20;99.90
26655;DHT22;14278;50.784;4.630;2023-05-10T09:45:08;15.20;99.90
26655;DHT22;14278;50.784;4.630;2023-05-10T09:47:35;15.20;99.90
26655;DHT22;14278;50.784;4.630;2023-05-10T09:50:03;15.20;99.90
26655;DHT22;14278;50.784;4.630;2023-05-10T09:52:50;15.10;99.90
26655;DHT22;14278;50.784;4.630;2023-05-10T09:55:18;15.20;99.90
26655;DHT22;14278;50.784;4.630;2023-05-10T09:57:46;15.10;99.90
26655;DHT22;14278;50.784;4.630;2023-05-10T10:00:18;15.30;99.90
26655;DHT22;14278;50.784;4.630;2023-05-10T10:02:54;15.50;99.90
26655;DHT22;14278;50.784;4.630;2023-05-10T10:05:20;15.40;99.90
26655;DHT22;14278;50.784;4.630;2023-05-10T10:07:46;15.40;99.90
26655;DHT22;14278;50.784;4.630;2023-05-10T10:10:12;15.60;99.90
26655;DHT22;14278;50.784;4.630;2023-05-10T10:12:41;15.60;99.90
26655;DHT22;14278;50.784;4.630;2023-05-10T10:15:08;15.40;99.90
26655;DHT22;14278;50.784;4.630;2023-05-10T10:17:36;15.50;99.90
26655;DHT22;14278;50.784;4.630;2023-05-10T10:20:03;15.30;99.90
26655;DHT22;14278;50.784;4.630;2023-05-10T10:22:29;15.60;99.90
26655;DHT22;14278;50.784;4.630;2023-05-10T10:24:56;15.70;99.90
26655;DHT22;14278;50.784;4.630;2023-05-10T10:27:26;15.50;99.90
26655;DHT22;14278;50.784;4.630;2023-05-10T10:35:33;15.50;99.90
26655;DHT22;14278;50.784;4.630;2023-05-10T10:38:00;15.50;99.90
26655;DHT22;14278;50.784;4.630;2023-05-10T10:40:33;15.80;99.90
26655;DHT22;14278;50.784;4.630;2023-05-10T10:43:25;15.70;99.90
26655;DHT22;14278;50.784;4.630;2023-05-10T10:48:41;15.90;99.90
26655;DHT22;14278;50.784;4.630;2023-05-10T10:51:07;15.80;99.90
26655;DHT22;14278;50.784;4.630;2023-05-10T10:53:33;15.60;99.90
26655;DHT22;14278;50.784;4.630;2023-05-10T10:56:08;15.80;99.90
26655;DHT22;14278;50.784;4.630;2023-05-10T10:58:36;16.20;99.90
26655;DHT22;14278;50.784;4.630;2023-05-10T11:01:19;16.30;99.90
26655;DHT22;14278;50.784;4.630;2023-05-10T11:06:33;16.70;99.90
26655;DHT22;14278;50.784;4.630;2023-05-10T11:09:09;16.40;99.90
26655;DHT22;14278;50.784;4.630;2023-05-10T11:11:36;16.50;99.90
26655;DHT22;14278;50.784;4.630;2023-05-10T11:14:07;17.00;99.90
26655;DHT22;14278;50.784;4.630;2023-05-10T11:16:43;16.70;99.90
26655;DHT22;14278;50.784;4.630;2023-05-10T11:19:11;17.40;99.90
26655;DHT22;14278;50.784;4.630;2023-05-10T11:21:51;17.50;99.90
26655;DHT22;14278;50.784;4.630;2023-05-10T11:24:36;17.50;99.90
26655;DHT22;14278;50.784;4.630;2023-05-10T11:27:02;17.70;99.90
26655;DHT22;14278;50.784;4.630;2023-05-10T11:29:28;18.00;99.90
26655;DHT22;14278;50.784;4.630;2023-05-10T11:31:57;18.10;99.90
26655;DHT22;14278;50.784;4.630;2023-05-10T11:34:28;18.30;99.90
26655;DHT22;14278;50.784;4.630;2023-05-10T11:36:57;18.30;99.90
26655;DHT22;14278;50.784;4.630;2023-05-10T11:39:27;18.50;99.90
26655;DHT22;14278;50.784;4.630;2023-05-10T11:41:54;18.30;99.90
26655;DHT22;14278;50.784;4.630;2023-05-10T11:44:19;18.50;99.90
26655;DHT22;14278;50.784;4.630;2023-05-10T11:46:45;18.60;99.90
26655;DHT22;14278;50.784;4.630;2023-05-10T11:49:11;18.30;99.90
26655;DHT22;14278;50.784;4.630;2023-05-10T11:51:38;18.40;99.90
26655;DHT22;14278;50.784;4.630;2023-05-10T11:54:10;18.20;99.90
26655;DHT22;14278;50.784;4.630;2023-05-10T11:56:40;18.50;99.90
26655;DHT22;14278;50.784;4.630;2023-05-10T11:59:07;19.30;99.90
26655;DHT22;14278;50.784;4.630;2023-05-10T12:01:34;19.40;99.90
26655;DHT22;14278;50.784;4.630;2023-05-10T12:04:00;19.70;99.90
26655;DHT22;14278;50.784;4.630;2023-05-10T12:06:31;20.10;99.90
26655;DHT22;14278;50.784;4.630;2023-05-10T12:08:58;19.70;99.90
26655;DHT22;14278;50.784;4.630;2023-05-10T12:11:28;19.70;99.90
26655;DHT22;14278;50.784;4.630;2023-05-10T12:13:55;19.40;99.90
26655;DHT22;14278;50.784;4.630;2023-05-10T12:16:24;19.80;99.90
26655;DHT22;14278;50.784;4.630;2023-05-10T12:18:52;20.10;99.90
26655;DHT22;14278;50.784;4.630;2023-05-10T12:21:19;20.30;99.90
26655;DHT22;14278;50.784;4.630;2023-05-10T12:23:46;21.10;99.90
26655;DHT22;14278;50.784;4.630;2023-05-10T12:26:13;21.20;99.90
26655;DHT22;14278;50.784;4.630;2023-05-10T12:28:39;21.20;99.90
26655;DHT22;14278;50.784;4.630;2023-05-10T12:31:06;20.90;99.90
26655;DHT22;14278;50.784;4.630;2023-05-10T12:33:40;20.80;99.90
26655;DHT22;14278;50.784;4.630;2023-05-10T12:36:12;20.20;99.90
26655;DHT22;14278;50.784;4.630;2023-05-10T12:38:40;19.60;99.90
26655;DHT22;14278;50.784;4.630;2023-05-10T12:41:18;19.70;99.90
26655;DHT22;14278;50.784;4.630;2023-05-10T12:43:44;20.00;99.90
26655;DHT22;14278;50.784;4.630;2023-05-10T12:46:16;20.20;99.90
26655;DHT22;14278;50.784;4.630;2023-05-10T12:48:44;19.80;99.90
26655;DHT22;14278;50.784;4.630;2023-05-10T12:51:11;19.10;99.90
26655;DHT22;14278;50.784;4.630;2023-05-10T12:53:41;18.90;99.90
26655;DHT22;14278;50.784;4.630;2023-05-10T12:56:07;19.00;99.90
26655;DHT22;14278;50.784;4.630;2023-05-10T12:58:34;18.70;99.90
26655;DHT22;14278;50.784;4.630;2023-05-10T13:01:00;18.70;99.90
26655;DHT22;14278;50.784;4.630;2023-05-10T13:03:26;18.30;99.90
26655;DHT22;14278;50.784;4.630;2023-05-10T13:05:52;18.40;99.90
26655;DHT22;14278;50.784;4.630;2023-05-10T13:08:18;18.60;99.90
26655;DHT22;14278;50.784;4.630;2023-05-10T13:10:44;18.10;99.90
26655;DHT22;14278;50.784;4.630;2023-05-10T13:13:10;18.20;99.90
26655;DHT22;14278;50.784;4.630;2023-05-10T13:15:36;18.40;99.90
26655;DHT22;14278;50.784;4.630;2023-05-10T13:18:02;18.60;99.90
26655;DHT22;14278;50.784;4.630;2023-05-10T13:20:28;18.70;99.90
26655;DHT22;14278;50.784;4.630;2023-05-10T13:22:54;18.90;99.90
26655;DHT22;14278;50.784;4.630;2023-05-10T13:25:19;18.70;99.90
26655;DHT22;14278;50.784;4.630;2023-05-10T13:27:45;19.10;99.90
26655;DHT22;14278;50.784;4.630;2023-05-10T13:30:11;18.80;99.90
26655;DHT22;14278;50.784;4.630;2023-05-10T13:32:38;18.70;99.90
26655;DHT22;14278;50.784;4.630;2023-05-10T13:35:04;18.50;99.90
26655;DHT22;14278;50.784;4.630;2023-05-10T13:37:31;18.30;99.90
26655;DHT22;14278;50.784;4.630;2023-05-10T13:39:58;18.40;99.90
26655;DHT22;14278;50.784;4.630;2023-05-10T13:42:23;18.00;99.90
26655;DHT22;14278;50.784;4.630;2023-05-10T13:44:50;18.00;99.90
26655;DHT22;14278;50.784;4.630;2023-05-10T13:47:16;18.50;99.90
26655;DHT22;14278;50.784;4.630;2023-05-10T13:49:41;18.90;99.90
26655;DHT22;14278;50.784;4.630;2023-05-10T13:52:07;19.10;99.90
26655;DHT22;14278;50.784;4.630;2023-05-10T13:54:38;19.10;99.90
26655;DHT22;14278;50.784;4.630;2023-05-10T13:57:04;19.00;99.90
26655;DHT22;14278;50.784;4.630;2023-05-10T13:59:30;19.10;99.90
26655;DHT22;14278;50.784;4.630;2023-05-10T14:01:59;19.40;99.90
26655;DHT22;14278;50.784;4.630;2023-05-10T14:04:28;19.00;99.90
26655;DHT22;14278;50.784;4.630;2023-05-10T14:06:54;18.80;99.90
26655;DHT22;14278;50.784;4.630;2023-05-10T14:09:20;19.00;99.90
26655;DHT22;14278;50.784;4.630;2023-05-10T14:11:46;19.10;99.90
26655;DHT22;14278;50.784;4.630;2023-05-10T14:14:12;18.70;99.90
26655;DHT22;14278;50.784;4.630;2023-05-10T14:16:44;19.10;99.90
26655;DHT22;14278;50.784;4.630;2023-05-10T14:19:10;18.90;99.90
26655;DHT22;14278;50.784;4.630;2023-05-10T14:21:36;18.90;99.90
26655;DHT22;14278;50.784;4.630;2023-05-10T14:24:02;18.80;99.90
26655;DHT22;14278;50.784;4.630;2023-05-10T14:26:28;18.70;99.90
26655;DHT22;14278;50.784;4.630;2023-05-10T14:28:54;18.60;99.90
26655;DHT22;14278;50.784;4.630;2023-05-10T14:31:20;18.40;99.90
26655;DHT22;14278;50.784;4.630;2023-05-10T14:33:49;18.70;99.90
26655;DHT22;14278;50.784;4.630;2023-05-10T14:36:15;18.70;99.90
26655;DHT22;14278;50.784;4.630;2023-05-10T14:38:41;18.30;99.90
26655;DHT22;14278;50.784;4.630;2023-05-10T14:41:07;18.70;99.90
26655;DHT22;14278;50.784;4.630;2023-05-10T14:43:33;18.60;99.90
26655;DHT22;14278;50.784;4.630;2023-05-10T14:45:58;18.80;99.90
26655;DHT22;14278;50.784;4.630;2023-05-10T14:48:24;18.60;99.90
26655;DHT22;14278;50.784;4.630;2023-05-10T14:50:50;18.60;99.90
26655;DHT22;14278;50.784;4.630;2023-05-10T14:53:18;18.60;99.90
26655;DHT22;14278;50.784;4.630;2023-05-10T14:55:44;18.70;99.90
26655;DHT22;14278;50.784;4.630;2023-05-10T14:58:10;18.40;99.90
26655;DHT22;14278;50.784;4.630;2023-05-10T15:00:36;18.60;99.90
26655;DHT22;14278;50.784;4.630;2023-05-10T15:03:01;18.60;99.90
26655;DHT22;14278;50.784;4.630;2023-05-10T15:05:28;18.70;99.90
26655;DHT22;14278;50.784;4.630;2023-05-10T15:07:54;18.60;99.90
26655;DHT22;14278;50.784;4.630;2023-05-10T15:10:19;18.90;99.90
26655;DHT22;14278;50.784;4.630;2023-05-10T15:12:45;19.20;99.90
26655;DHT22;14278;50.784;4.630;2023-05-10T15:15:11;18.60;99.90
26655;DHT22;14278;50.784;4.630;2023-05-10T15:17:37;18.80;99.90
26655;DHT22;14278;50.784;4.630;2023-05-10T15:20:03;19.00;99.90
26655;DHT22;14278;50.784;4.630;2023-05-10T15:22:30;18.90;99.90
26655;DHT22;14278;50.784;4.630;2023-05-10T15:24:57;18.50;99.90
26655;DHT22;14278;50.784;4.630;2023-05-10T15:27:24;18.60;99.90
26655;DHT22;14278;50.784;4.630;2023-05-10T15:29:50;18.70;99.90
26655;DHT22;14278;50.784;4.630;2023-05-10T15:32:16;19.20;99.90
26655;DHT22;14278;50.784;4.630;2023-05-10T15:34:42;19.10;99.90
26655;DHT22;14278;50.784;4.630;2023-05-10T15:37:08;18.70;99.90
26655;DHT22;14278;50.784;4.630;2023-05-10T15:39:34;18.70;99.90
26655;DHT22;14278;50.784;4.630;2023-05-10T15:41:59;18.60;99.90
26655;DHT22;14278;50.784;4.630;2023-05-10T15:44:26;18.40;99.90
26655;DHT22;14278;50.784;4.630;2023-05-10T15:46:52;18.40;99.90
26655;DHT22;14278;50.784;4.630;2023-05-10T15:49:19;18.30;99.90
26655;DHT22;14278;50.784;4.630;2023-05-10T15:51:44;18.00;99.90
26655;DHT22;14278;50.784;4.630;2023-05-10T15:54:10;17.70;99.90
26655;DHT22;14278;50.784;4.630;2023-05-10T15:56:36;17.50;99.90
26655;DHT22;14278;50.784;4.630;2023-05-10T15:59:02;17.30;99.90